sensor_id;sensor_type;location;lat;lon;timestamp;temperature;humidity
1259;DHT22;619;51.472;6.628;2023-04-19T00:00:56;16.90;66.30
1259;DHT22;619;51.472;6.628;2023-04-19T00:03:22;16.90;66.50
1259;DHT22;619;51.472;6.628;2023-04-19T00:05:52;16.90;66.60
1259;DHT22;619;51.472;6.628;2023-04-19T00:08:24;16.90;66.80
1259;DHT22;619;51.472;6.628;2023-04-19T00:10:56;16.90;66.70
1259;DHT22;619;51.472;6.628;2023-04-19T00:13:24;16.80;66.80
1259;DHT22;619;51.472;6.628;2023-04-19T00:15:50;16.80;67.10
1259;DHT22;619;51.472;6.628;2023-04-19T00:18:20;16.70;67.40
1259;DHT22;619;51.472;6.628;2023-04-19T00:20:46;16.50;67.80
1259;DHT22;619;51.472;6.628;2023-04-19T00:23:14;16.40;68.10
1259;DHT22;619;51.472;6.628;2023-04-19T00:25:40;16.30;68.60
1259;DHT22;619;51.472;6.628;2023-04-19T00:28:05;16.30;68.70
1259;DHT22;619;51.472;6.628;2023-04-19T00:30:31;16.40;69.00
1259;DHT22;619;51.472;6.628;2023-04-19T00:33:01;16.40;69.00
1259;DHT22;619;51.472;6.628;2023-04-19T00:35:27;16.40;69.10
1259;DHT22;619;51.472;6.628;2023-04-19T00:37:54;16.40;69.10
1259;DHT22;619;51.472;6.628;2023-04-19T00:40:20;16.50;69.20
1259;DHT22;619;51.472;6.628;2023-04-19T00:42:50;16.50;69.30
1259;DHT22;619;51.472;6.628;2023-04-19T00:45:18;16.60;69.50
1259;DHT22;619;51.472;6.628;2023-04-19T00:47:46;16.60;69.60
1259;DHT22;619;51.472;6.628;2023-04-19T00:50:14;16.60;69.60
1259;DHT22;619;51.472;6.628;2023-04-19T00:52:45;16.60;69.60
1259;DHT22;619;51.472;6.628;2023-04-19T00:55:12;16.60;69.70
1259;DHT22;619;51.472;6.628;2023-04-19T00:57:43;16.60;69.70
1259;DHT22;619;51.472;6.628;2023-04-19T01:00:11;16.70;69.70
1259;DHT22;619;51.472;6.628;2023-04-19T01:02:39;16.70;69.60
1259;DHT22;619;51.472;6.628;2023-04-19T01:05:05;16.70;69.70
1259;DHT22;619;51.472;6.628;2023-04-19T01:07:32;16.70;69.70
1259;DHT22;619;51.472;6.628;2023-04-19T01:10:00;16.80;69.60
1259;DHT22;619;51.472;6.628;2023-04-19T01:12:26;16.90;69.50
1259;DHT22;619;51.472;6.628;2023-04-19T01:14:54;16.90;69.40
1259;DHT22;619;51.472;6.628;2023-04-19T01:17:22;16.90;69.50
1259;DHT22;619;51.472;6.628;2023-04-19T01:19:48;16.90;69.30
1259;DHT22;619;51.472;6.628;2023-04-19T01:22:20;17.00;69.20
1259;DHT22;619;51.472;6.628;2023-04-19T01:24:47;17.00;69.00
1259;DHT22;619;51.472;6.628;2023-04-19T01:27:12;17.00;68.90
1259;DHT22;619;51.472;6.628;2023-04-19T01:29:44;17.00;68.90
1259;DHT22;619;51.472;6.628;2023-04-19T01:32:10;17.00;68.90
1259;DHT22;619;51.472;6.628;2023-04-19T01:34:37;17.00;68.70
1259;DHT22;619;51.472;6.628;2023-04-19T01:37:05;17.10;68.60
1259;DHT22;619;51.472;6.628;2023-04-19T01:39:33;17.10;68.50
1259;DHT22;619;51.472;6.628;2023-04-19T01:42:01;17.10;68.30
1259;DHT22;619;51.472;6.628;2023-04-19T01:44:29;17.20;68.40
1259;DHT22;619;51.472;6.628;2023-04-19T01:46:55;17.20;68.20
1259;DHT22;619;51.472;6.628;2023-04-19T01:49:22;17.20;68.10
1259;DHT22;619;51.472;6.628;2023-04-19T01:51:48;17.20;68.10
1259;DHT22;619;51.472;6.628;2023-04-19T01:54:16;17.20;68.10
1259;DHT22;619;51.472;6.628;2023-04-19T01:56:42;17.20;68.20
1259;DHT22;619;51.472;6.628;2023-04-19T01:59:12;17.10;68.00
1259;DHT22;619;51.472;6.628;2023-04-19T02:01:40;17.20;68.20
1259;DHT22;619;51.472;6.628;2023-04-19T02:04:06;17.20;68.10
1259;DHT22;619;51.472;6.628;2023-04-19T02:06:34;17.20;68.00
1259;DHT22;619;51.472;6.628;2023-04-19T02:09:03;17.20;68.00
1259;DHT22;619;51.472;6.628;2023-04-19T02:11:31;17.20;67.80
1259;DHT22;619;51.472;6.628;2023-04-19T02:13:59;17.20;67.70
1259;DHT22;619;51.472;6.628;2023-04-19T02:16:27;17.20;67.60
1259;DHT22;619;51.472;6.628;2023-04-19T02:18:57;17.10;67.70
1259;DHT22;619;51.472;6.628;2023-04-19T02:21:23;17.10;67.80
1259;DHT22;619;51.472;6.628;2023-04-19T02:23:51;17.10;67.80
1259;DHT22;619;51.472;6.628;2023-04-19T02:26:19;17.10;67.70
1259;DHT22;619;51.472;6.628;2023-04-19T02:28:49;17.10;67.60
1259;DHT22;619;51.472;6.628;2023-04-19T02:31:16;17.00;67.40
1259;DHT22;619;51.472;6.628;2023-04-19T02:33:42;17.00;67.40
1259;DHT22;619;51.472;6.628;2023-04-19T02:36:08;17.00;67.30
1259;DHT22;619;51.472;6.628;2023-04-19T02:38:34;17.00;67.20
1259;DHT22;619;51.472;6.628;2023-04-19T02:41:04;16.90;67.20
1259;DHT22;619;51.472;6.628;2023-04-19T02:43:34;16.80;67.10
1259;DHT22;619;51.472;6.628;2023-04-19T02:46:02;16.80;67.40
1259;DHT22;619;51.472;6.628;2023-04-19T02:48:28;16.70;67.60
1259;DHT22;619;51.472;6.628;2023-04-19T02:50:53;16.70;67.70
1259;DHT22;619;51.472;6.628;2023-04-19T02:53:19;16.60;67.70
1259;DHT22;619;51.472;6.628;2023-04-19T02:55:47;16.60;67.80
1259;DHT22;619;51.472;6.628;2023-04-19T02:58:12;16.60;67.90
1259;DHT22;619;51.472;6.628;2023-04-19T03:00:38;16.60;67.80
1259;DHT22;619;51.472;6.628;2023-04-19T03:03:06;16.60;67.90
1259;DHT22;619;51.472;6.628;2023-04-19T03:05:34;16.50;67.90
1259;DHT22;619;51.472;6.628;2023-04-19T03:08:01;16.50;67.90
1259;DHT22;619;51.472;6.628;2023-04-19T03:10:32;16.50;68.00
1259;DHT22;619;51.472;6.628;2023-04-19T03:12:57;16.40;68.10
1259;DHT22;619;51.472;6.628;2023-04-19T03:15:28;16.40;68.20
1259;DHT22;619;51.472;6.628;2023-04-19T03:17:56;16.40;68.30
1259;DHT22;619;51.472;6.628;2023-04-19T03:20:22;16.30;68.10
1259;DHT22;619;51.472;6.628;2023-04-19T03:22:52;16.30;68.10
1259;DHT22;619;51.472;6.628;2023-04-19T03:25:20;16.30;68.30
1259;DHT22;619;51.472;6.628;2023-04-19T03:27:46;16.20;68.30
1259;DHT22;619;51.472;6.628;2023-04-19T03:30:16;16.10;68.50
1259;DHT22;619;51.472;6.628;2023-04-19T03:32:45;16.10;68.70
1259;DHT22;619;51.472;6.628;2023-04-19T03:35:18;15.90;68.90
1259;DHT22;619;51.472;6.628;2023-04-19T03:37:49;15.90;69.00
1259;DHT22;619;51.472;6.628;2023-04-19T03:40:18;15.90;69.10
1259;DHT22;619;51.472;6.628;2023-04-19T03:42:45;15.90;69.10
1259;DHT22;619;51.472;6.628;2023-04-19T03:45:13;15.90;69.00
1259;DHT22;619;51.472;6.628;2023-04-19T03:47:41;15.90;68.80
1259;DHT22;619;51.472;6.628;2023-04-19T03:50:07;15.90;68.50
1259;DHT22;619;51.472;6.628;2023-04-19T03:52:38;15.90;68.50
1259;DHT22;619;51.472;6.628;2023-04-19T03:55:06;15.90;68.30
1259;DHT22;619;51.472;6.628;2023-04-19T03:57:35;15.90;68.20
1259;DHT22;619;51.472;6.628;2023-04-19T04:00:00;15.80;68.10
1259;DHT22;619;51.472;6.628;2023-04-19T04:02:31;15.80;67.60
1259;DHT22;619;51.472;6.628;2023-04-19T04:04:59;15.90;67.60
1259;DHT22;619;51.472;6.628;2023-04-19T04:07:27;15.80;67.10
1259;DHT22;619;51.472;6.628;2023-04-19T04:09:55;15.80;67.10
1259;DHT22;619;51.472;6.628;2023-04-19T04:12:20;15.80;66.80
1259;DHT22;619;51.472;6.628;2023-04-19T04:14:46;15.90;66.60
1259;DHT22;619;51.472;6.628;2023-04-19T04:17:12;15.70;66.10
1259;DHT22;619;51.472;6.628;2023-04-19T04:19:42;15.60;65.80
1259;DHT22;619;51.472;6.628;2023-04-19T04:22:10;15.60;66.60
1259;DHT22;619;51.472;6.628;2023-04-19T04:24:41;15.50;65.60
1259;DHT22;619;51.472;6.628;2023-04-19T04:27:10;15.50;65.40
1259;DHT22;619;51.472;6.628;2023-04-19T04:29:41;15.50;65.40
1259;DHT22;619;51.472;6.628;2023-04-19T04:32:10;15.50;65.50
1259;DHT22;619;51.472;6.628;2023-04-19T04:34:41;15.40;65.70
1259;DHT22;619;51.472;6.628;2023-04-19T04:37:14;15.40;65.90
1259;DHT22;619;51.472;6.628;2023-04-19T04:39:43;15.30;66.00
1259;DHT22;619;51.472;6.628;2023-04-19T04:42:09;15.30;66.20
1259;DHT22;619;51.472;6.628;2023-04-19T04:44:38;15.30;65.90
1259;DHT22;619;51.472;6.628;2023-04-19T04:47:04;15.20;65.60
1259;DHT22;619;51.472;6.628;2023-04-19T04:49:31;15.10;65.40
1259;DHT22;619;51.472;6.628;2023-04-19T04:52:00;15.10;65.40
1259;DHT22;619;51.472;6.628;2023-04-19T04:54:28;15.10;65.70
1259;DHT22;619;51.472;6.628;2023-04-19T04:56:57;15.00;65.60
1259;DHT22;619;51.472;6.628;2023-04-19T04:59:25;15.00;65.70
1259;DHT22;619;51.472;6.628;2023-04-19T05:01:54;14.90;65.50
1259;DHT22;619;51.472;6.628;2023-04-19T05:04:19;14.90;65.60
1259;DHT22;619;51.472;6.628;2023-04-19T05:06:49;14.80;65.10
1259;DHT22;619;51.472;6.628;2023-04-19T05:09:19;14.80;65.10
1259;DHT22;619;51.472;6.628;2023-04-19T05:11:45;14.90;65.30
1259;DHT22;619;51.472;6.628;2023-04-19T05:14:12;14.90;65.10
1259;DHT22;619;51.472;6.628;2023-04-19T05:16:40;14.70;64.70
1259;DHT22;619;51.472;6.628;2023-04-19T05:19:08;14.70;65.30
1259;DHT22;619;51.472;6.628;2023-04-19T05:21:39;14.60;65.10
1259;DHT22;619;51.472;6.628;2023-04-19T05:24:05;14.70;65.50
1259;DHT22;619;51.472;6.628;2023-04-19T05:26:33;14.70;65.40
1259;DHT22;619;51.472;6.628;2023-04-19T05:28:58;14.70;65.30
1259;DHT22;619;51.472;6.628;2023-04-19T05:31:26;14.80;65.20
1259;DHT22;619;51.472;6.628;2023-04-19T05:33:54;14.70;64.90
1259;DHT22;619;51.472;6.628;2023-04-19T05:36:24;14.60;64.20
1259;DHT22;619;51.472;6.628;2023-04-19T05:38:52;14.80;64.70
1259;DHT22;619;51.472;6.628;2023-04-19T05:41:20;14.80;64.50
1259;DHT22;619;51.472;6.628;2023-04-19T05:43:46;14.90;64.20
1259;DHT22;619;51.472;6.628;2023-04-19T05:46:13;14.80;63.70
1259;DHT22;619;51.472;6.628;2023-04-19T05:48:39;14.80;63.30
1259;DHT22;619;51.472;6.628;2023-04-19T05:51:07;14.80;62.90
1259;DHT22;619;51.472;6.628;2023-04-19T05:53:35;14.80;62.40
1259;DHT22;619;51.472;6.628;2023-04-19T05:56:07;14.80;61.90
1259;DHT22;619;51.472;6.628;2023-04-19T05:58:38;14.90;61.90
1259;DHT22;619;51.472;6.628;2023-04-19T06:01:06;14.90;61.90
1259;DHT22;619;51.472;6.628;2023-04-19T06:03:36;15.00;61.90
1259;DHT22;619;51.472;6.628;2023-04-19T06:06:06;15.10;62.10
1259;DHT22;619;51.472;6.628;2023-04-19T06:08:32;15.20;61.50
1259;DHT22;619;51.472;6.628;2023-04-19T06:10:58;15.20;61.00
1259;DHT22;619;51.472;6.628;2023-04-19T06:13:24;15.20;60.20
1259;DHT22;619;51.472;6.628;2023-04-19T06:15:54;15.10;59.50
1259;DHT22;619;51.472;6.628;2023-04-19T06:18:27;15.20;59.60
1259;DHT22;619;51.472;6.628;2023-04-19T06:20:55;15.30;59.50
1259;DHT22;619;51.472;6.628;2023-04-19T06:23:27;15.30;58.90
1259;DHT22;619;51.472;6.628;2023-04-19T06:25:53;15.30;58.40
1259;DHT22;619;51.472;6.628;2023-04-19T06:28:18;15.40;58.00
1259;DHT22;619;51.472;6.628;2023-04-19T06:30:46;15.30;56.20
1259;DHT22;619;51.472;6.628;2023-04-19T06:33:17;15.10;56.10
1259;DHT22;619;51.472;6.628;2023-04-19T06:35:45;15.10;56.00
1259;DHT22;619;51.472;6.628;2023-04-19T06:38:11;15.20;55.90
1259;DHT22;619;51.472;6.628;2023-04-19T06:40:36;15.30;56.10
1259;DHT22;619;51.472;6.628;2023-04-19T06:43:04;15.30;56.00
1259;DHT22;619;51.472;6.628;2023-04-19T06:45:30;15.40;55.30
1259;DHT22;619;51.472;6.628;2023-04-19T06:47:58;15.40;54.90
1259;DHT22;619;51.472;6.628;2023-04-19T06:50:24;15.40;54.30
1259;DHT22;619;51.472;6.628;2023-04-19T06:52:49;15.40;54.70
1259;DHT22;619;51.472;6.628;2023-04-19T06:55:17;15.50;54.70
1259;DHT22;619;51.472;6.628;2023-04-19T06:57:45;15.60;54.70
1259;DHT22;619;51.472;6.628;2023-04-19T07:00:14;15.50;53.80
1259;DHT22;619;51.472;6.628;2023-04-19T07:02:42;15.60;54.00
1259;DHT22;619;51.472;6.628;2023-04-19T07:05:12;15.60;54.00
1259;DHT22;619;51.472;6.628;2023-04-19T07:07:37;15.60;53.60
1259;DHT22;619;51.472;6.628;2023-04-19T07:10:07;15.60;53.70
1259;DHT22;619;51.472;6.628;2023-04-19T07:12:34;15.60;53.90
1259;DHT22;619;51.472;6.628;2023-04-19T07:15:00;15.70;54.30
1259;DHT22;619;51.472;6.628;2023-04-19T07:17:28;15.80;54.50
1259;DHT22;619;51.472;6.628;2023-04-19T07:19:54;15.90;54.60
1259;DHT22;619;51.472;6.628;2023-04-19T07:22:24;16.00;54.00
1259;DHT22;619;51.472;6.628;2023-04-19T07:24:53;16.10;54.40
1259;DHT22;619;51.472;6.628;2023-04-19T07:27:23;16.20;54.10
1259;DHT22;619;51.472;6.628;2023-04-19T07:29:51;16.30;54.00
1259;DHT22;619;51.472;6.628;2023-04-19T07:32:17;16.40;54.10
1259;DHT22;619;51.472;6.628;2023-04-19T07:34:46;16.40;52.90
1259;DHT22;619;51.472;6.628;2023-04-19T07:37:21;16.50;52.60
1259;DHT22;619;51.472;6.628;2023-04-19T07:39:49;16.60;52.80
1259;DHT22;619;51.472;6.628;2023-04-19T07:42:17;16.70;52.30
1259;DHT22;619;51.472;6.628;2023-04-19T07:44:42;16.70;51.70
1259;DHT22;619;51.472;6.628;2023-04-19T07:47:08;16.70;51.70
1259;DHT22;619;51.472;6.628;2023-04-19T07:49:33;16.80;51.60
1259;DHT22;619;51.472;6.628;2023-04-19T07:52:02;16.80;51.10
1259;DHT22;619;51.472;6.628;2023-04-19T07:54:30;16.90;50.80
1259;DHT22;619;51.472;6.628;2023-04-19T07:56:56;16.80;50.70
1259;DHT22;619;51.472;6.628;2023-04-19T07:59:23;16.80;50.70
1259;DHT22;619;51.472;6.628;2023-04-19T08:01:54;16.90;51.50
1259;DHT22;619;51.472;6.628;2023-04-19T08:04:20;17.00;50.60
1259;DHT22;619;51.472;6.628;2023-04-19T08:06:47;17.00;50.00
1259;DHT22;619;51.472;6.628;2023-04-19T08:09:15;17.00;49.30
1259;DHT22;619;51.472;6.628;2023-04-19T08:11:46;17.10;49.00
1259;DHT22;619;51.472;6.628;2023-04-19T08:14:16;17.10;48.20
1259;DHT22;619;51.472;6.628;2023-04-19T08:16:42;17.30;49.00
1259;DHT22;619;51.472;6.628;2023-04-19T08:19:07;17.30;48.00
1259;DHT22;619;51.472;6.628;2023-04-19T08:21:33;17.30;47.20
1259;DHT22;619;51.472;6.628;2023-04-19T08:23:58;17.30;47.30
1259;DHT22;619;51.472;6.628;2023-04-19T08:26:26;17.20;47.50
1259;DHT22;619;51.472;6.628;2023-04-19T08:28:52;17.30;48.30
1259;DHT22;619;51.472;6.628;2023-04-19T08:31:22;17.30;47.70
1259;DHT22;619;51.472;6.628;2023-04-19T08:33:50;17.30;47.60
1259;DHT22;619;51.472;6.628;2023-04-19T08:36:21;17.30;47.00
1259;DHT22;619;51.472;6.628;2023-04-19T08:38:49;17.30;46.80
1259;DHT22;619;51.472;6.628;2023-04-19T08:41:22;17.30;46.30
1259;DHT22;619;51.472;6.628;2023-04-19T08:43:50;17.30;46.60
1259;DHT22;619;51.472;6.628;2023-04-19T08:46:16;17.20;45.70
1259;DHT22;619;51.472;6.628;2023-04-19T08:48:45;17.20;45.90
1259;DHT22;619;51.472;6.628;2023-04-19T08:51:16;17.10;45.70
1259;DHT22;619;51.472;6.628;2023-04-19T08:53:44;17.00;45.70
1259;DHT22;619;51.472;6.628;2023-04-19T08:56:14;17.00;46.00
1259;DHT22;619;51.472;6.628;2023-04-19T08:58:42;17.10;46.40
1259;DHT22;619;51.472;6.628;2023-04-19T09:01:10;17.30;45.80
1259;DHT22;619;51.472;6.628;2023-04-19T09:03:44;17.40;45.40
1259;DHT22;619;51.472;6.628;2023-04-19T09:06:13;17.40;45.60
1259;DHT22;619;51.472;6.628;2023-04-19T09:08:44;17.50;45.40
1259;DHT22;619;51.472;6.628;2023-04-19T09:11:09;17.50;45.60
1259;DHT22;619;51.472;6.628;2023-04-19T09:13:37;17.50;45.00
1259;DHT22;619;51.472;6.628;2023-04-19T09:16:25;17.50;45.30
1259;DHT22;619;51.472;6.628;2023-04-19T09:18:56;17.50;45.70
1259;DHT22;619;51.472;6.628;2023-04-19T09:21:29;17.60;45.40
1259;DHT22;619;51.472;6.628;2023-04-19T09:24:00;17.60;45.50
1259;DHT22;619;51.472;6.628;2023-04-19T09:26:29;17.50;44.20
1259;DHT22;619;51.472;6.628;2023-04-19T09:29:04;17.50;44.30
1259;DHT22;619;51.472;6.628;2023-04-19T09:31:34;17.60;44.20
1259;DHT22;619;51.472;6.628;2023-04-19T09:34:19;17.70;44.90
1259;DHT22;619;51.472;6.628;2023-04-19T09:36:51;17.70;44.10
1259;DHT22;619;51.472;6.628;2023-04-19T09:39:32;17.70;43.80
1259;DHT22;619;51.472;6.628;2023-04-19T09:42:03;17.80;43.60
1259;DHT22;619;51.472;6.628;2023-04-19T09:44:31;18.00;44.20
1259;DHT22;619;51.472;6.628;2023-04-19T09:47:00;18.10;43.20
1259;DHT22;619;51.472;6.628;2023-04-19T09:49:32;18.20;42.80
1259;DHT22;619;51.472;6.628;2023-04-19T09:51:58;18.30;42.20
1259;DHT22;619;51.472;6.628;2023-04-19T09:54:26;18.40;41.80
1259;DHT22;619;51.472;6.628;2023-04-19T09:56:57;18.60;41.60
1259;DHT22;619;51.472;6.628;2023-04-19T09:59:25;18.70;42.20
1259;DHT22;619;51.472;6.628;2023-04-19T10:01:54;18.90;42.10
1259;DHT22;619;51.472;6.628;2023-04-19T10:04:23;18.80;39.10
1259;DHT22;619;51.472;6.628;2023-04-19T10:06:53;18.80;39.30
1259;DHT22;619;51.472;6.628;2023-04-19T10:09:22;18.90;40.50
1259;DHT22;619;51.472;6.628;2023-04-19T10:12:00;18.90;39.20
1259;DHT22;619;51.472;6.628;2023-04-19T10:14:28;18.80;40.80
1259;DHT22;619;51.472;6.628;2023-04-19T10:16:57;18.80;41.00
1259;DHT22;619;51.472;6.628;2023-04-19T10:19:24;18.80;40.80
1259;DHT22;619;51.472;6.628;2023-04-19T10:21:54;18.90;41.50
1259;DHT22;619;51.472;6.628;2023-04-19T10:24:21;18.90;41.10
1259;DHT22;619;51.472;6.628;2023-04-19T10:27:07;18.90;40.00
1259;DHT22;619;51.472;6.628;2023-04-19T10:30:00;19.00;40.30
1259;DHT22;619;51.472;6.628;2023-04-19T10:32:29;19.00;39.00
1259;DHT22;619;51.472;6.628;2023-04-19T10:35:01;19.10;39.20
1259;DHT22;619;51.472;6.628;2023-04-19T10:37:30;19.20;40.00
1259;DHT22;619;51.472;6.628;2023-04-19T10:39:56;19.30;40.60
1259;DHT22;619;51.472;6.628;2023-04-19T10:42:26;19.20;38.10
1259;DHT22;619;51.472;6.628;2023-04-19T10:45:32;18.90;37.20
1259;DHT22;619;51.472;6.628;2023-04-19T10:47:58;18.70;38.30
1259;DHT22;619;51.472;6.628;2023-04-19T10:50:24;18.60;39.10
1259;DHT22;619;51.472;6.628;2023-04-19T10:52:52;18.60;39.60
1259;DHT22;619;51.472;6.628;2023-04-19T10:55:20;18.70;38.90
1259;DHT22;619;51.472;6.628;2023-04-19T10:58:08;18.80;40.00
1259;DHT22;619;51.472;6.628;2023-04-19T11:00:34;18.90;40.70
1259;DHT22;619;51.472;6.628;2023-04-19T11:06:17;19.30;39.70
1259;DHT22;619;51.472;6.628;2023-04-19T11:08:44;19.50;39.60
1259;DHT22;619;51.472;6.628;2023-04-19T11:11:13;19.50;40.20
1259;DHT22;619;51.472;6.628;2023-04-19T11:13:45;19.50;38.70
1259;DHT22;619;51.472;6.628;2023-04-19T11:16:13;19.40;38.60
1259;DHT22;619;51.472;6.628;2023-04-19T11:18:40;19.30;39.20
1259;DHT22;619;51.472;6.628;2023-04-19T11:21:05;19.30;38.70
1259;DHT22;619;51.472;6.628;2023-04-19T11:23:31;19.50;39.20
1259;DHT22;619;51.472;6.628;2023-04-19T11:25:58;19.50;37.60
1259;DHT22;619;51.472;6.628;2023-04-19T11:28:26;19.50;37.00
1259;DHT22;619;51.472;6.628;2023-04-19T11:30:59;19.30;36.50
1259;DHT22;619;51.472;6.628;2023-04-19T11:33:35;19.20;36.50
1259;DHT22;619;51.472;6.628;2023-04-19T11:36:01;19.10;35.80
1259;DHT22;619;51.472;6.628;2023-04-19T11:38:30;19.00;36.20
1259;DHT22;619;51.472;6.628;2023-04-19T11:40:59;18.90;36.40
1259;DHT22;619;51.472;6.628;2023-04-19T11:43:35;18.90;38.10
1259;DHT22;619;51.472;6.628;2023-04-19T11:46:08;18.90;36.90
1259;DHT22;619;51.472;6.628;2023-04-19T11:48:35;18.90;36.40
1259;DHT22;619;51.472;6.628;2023-04-19T11:51:07;18.90;36.80
1259;DHT22;619;51.472;6.628;2023-04-19T11:53:35;19.00;35.50
1259;DHT22;619;51.472;6.628;2023-04-19T11:56:11;18.90;35.60
1259;DHT22;619;51.472;6.628;2023-04-19T11:58:47;19.00;36.10
1259;DHT22;619;51.472;6.628;2023-04-19T12:01:18;19.10;35.10
1259;DHT22;619;51.472;6.628;2023-04-19T12:06:27;19.20;34.90
1259;DHT22;619;51.472;6.628;2023-04-19T12:08:55;19.20;34.40
1259;DHT22;619;51.472;6.628;2023-04-19T12:11:25;19.20;35.10
1259;DHT22;619;51.472;6.628;2023-04-19T12:14:12;19.30;35.10
1259;DHT22;619;51.472;6.628;2023-04-19T12:16:44;19.40;35.60
1259;DHT22;619;51.472;6.628;2023-04-19T12:19:13;19.30;35.10
1259;DHT22;619;51.472;6.628;2023-04-19T12:21:39;19.40;36.20
1259;DHT22;619;51.472;6.628;2023-04-19T12:24:06;19.70;35.60
1259;DHT22;619;51.472;6.628;2023-04-19T12:26:32;19.80;35.40
1259;DHT22;619;51.472;6.628;2023-04-19T12:28:59;19.90;34.70
1259;DHT22;619;51.472;6.628;2023-04-19T12:31:29;19.80;35.20
1259;DHT22;619;51.472;6.628;2023-04-19T12:33:58;20.00;35.90
1259;DHT22;619;51.472;6.628;2023-04-19T12:36:24;20.00;35.70
1259;DHT22;619;51.472;6.628;2023-04-19T12:38:52;20.10;36.60
1259;DHT22;619;51.472;6.628;2023-04-19T12:41:18;20.10;36.50
1259;DHT22;619;51.472;6.628;2023-04-19T12:43:46;20.10;35.70
1259;DHT22;619;51.472;6.628;2023-04-19T12:46:11;20.20;37.00
1259;DHT22;619;51.472;6.628;2023-04-19T12:48:37;20.20;34.40
1259;DHT22;619;51.472;6.628;2023-04-19T12:51:02;20.10;34.40
1259;DHT22;619;51.472;6.628;2023-04-19T12:53:28;20.20;35.70
1259;DHT22;619;51.472;6.628;2023-04-19T12:55:56;20.30;34.80
1259;DHT22;619;51.472;6.628;2023-04-19T12:58:22;20.40;35.80
1259;DHT22;619;51.472;6.628;2023-04-19T13:00:48;20.60;36.50
1259;DHT22;619;51.472;6.628;2023-04-19T13:03:13;20.80;36.50
1259;DHT22;619;51.472;6.628;2023-04-19T13:05:39;20.90;35.30
1259;DHT22;619;51.472;6.628;2023-04-19T13:08:05;21.00;35.10
1259;DHT22;619;51.472;6.628;2023-04-19T13:10:33;21.00;34.50
1259;DHT22;619;51.472;6.628;2023-04-19T13:13:01;21.20;35.00
1259;DHT22;619;51.472;6.628;2023-04-19T13:15:26;21.30;35.00
1259;DHT22;619;51.472;6.628;2023-04-19T13:17:53;21.20;34.50
1259;DHT22;619;51.472;6.628;2023-04-19T13:20:19;21.30;35.20
1259;DHT22;619;51.472;6.628;2023-04-19T13:22:45;21.40;35.50
1259;DHT22;619;51.472;6.628;2023-04-19T13:25:11;21.50;35.70
1259;DHT22;619;51.472;6.628;2023-04-19T13:27:36;21.60;35.60
1259;DHT22;619;51.472;6.628;2023-04-19T13:30:02;21.60;35.10
1259;DHT22;619;51.472;6.628;2023-04-19T13:32:28;21.70;35.90
1259;DHT22;619;51.472;6.628;2023-04-19T13:34:56;21.80;35.70
1259;DHT22;619;51.472;6.628;2023-04-19T13:37:21;21.80;35.90
1259;DHT22;619;51.472;6.628;2023-04-19T13:39:49;21.80;37.20
1259;DHT22;619;51.472;6.628;2023-04-19T13:42:15;21.90;36.80
1259;DHT22;619;51.472;6.628;2023-04-19T13:44:43;22.10;36.90
1259;DHT22;619;51.472;6.628;2023-04-19T13:47:08;22.20;36.00
1259;DHT22;619;51.472;6.628;2023-04-19T13:49:36;22.20;35.70
1259;DHT22;619;51.472;6.628;2023-04-19T13:52:02;22.20;36.00
1259;DHT22;619;51.472;6.628;2023-04-19T13:54:27;22.30;36.50
1259;DHT22;619;51.472;6.628;2023-04-19T13:56:55;22.30;35.80
1259;DHT22;619;51.472;6.628;2023-04-19T13:59:22;22.40;36.40
1259;DHT22;619;51.472;6.628;2023-04-19T14:01:50;22.30;35.70
1259;DHT22;619;51.472;6.628;2023-04-19T14:04:16;22.40;36.80
1259;DHT22;619;51.472;6.628;2023-04-19T14:06:42;22.50;36.60
1259;DHT22;619;51.472;6.628;2023-04-19T14:09:09;22.40;35.20
1259;DHT22;619;51.472;6.628;2023-04-19T14:11:37;22.30;35.10
1259;DHT22;619;51.472;6.628;2023-04-19T14:14:05;22.40;35.30
1259;DHT22;619;51.472;6.628;2023-04-19T14:16:31;22.40;35.40
1259;DHT22;619;51.472;6.628;2023-04-19T14:18:59;22.40;34.60
1259;DHT22;619;51.472;6.628;2023-04-19T14:21:27;22.30;34.60
1259;DHT22;619;51.472;6.628;2023-04-19T14:23:52;22.30;34.80
1259;DHT22;619;51.472;6.628;2023-04-19T14:26:18;22.40;35.20
1259;DHT22;619;51.472;6.628;2023-04-19T14:28:44;22.40;33.90
1259;DHT22;619;51.472;6.628;2023-04-19T14:31:12;22.30;34.50
1259;DHT22;619;51.472;6.628;2023-04-19T14:33:40;22.30;34.10
1259;DHT22;619;51.472;6.628;2023-04-19T14:36:06;22.20;34.60
1259;DHT22;619;51.472;6.628;2023-04-19T14:38:34;22.10;34.70
1259;DHT22;619;51.472;6.628;2023-04-19T14:41:01;22.10;35.10
1259;DHT22;619;51.472;6.628;2023-04-19T14:43:28;22.10;34.90
1259;DHT22;619;51.472;6.628;2023-04-19T14:45:53;22.00;35.30
1259;DHT22;619;51.472;6.628;2023-04-19T14:48:19;22.00;35.70
1259;DHT22;619;51.472;6.628;2023-04-19T14:50:45;21.90;35.50
1259;DHT22;619;51.472;6.628;2023-04-19T14:53:11;21.90;35.20
1259;DHT22;619;51.472;6.628;2023-04-19T14:55:37;21.90;35.40
1259;DHT22;619;51.472;6.628;2023-04-19T14:58:05;22.00;35.50
1259;DHT22;619;51.472;6.628;2023-04-19T15:00:31;22.10;35.50
1259;DHT22;619;51.472;6.628;2023-04-19T15:02:59;22.40;36.10
1259;DHT22;619;51.472;6.628;2023-04-19T15:05:27;22.60;35.40
1259;DHT22;619;51.472;6.628;2023-04-19T15:07:55;22.70;35.10
1259;DHT22;619;51.472;6.628;2023-04-19T15:10:21;22.70;34.60
1259;DHT22;619;51.472;6.628;2023-04-19T15:12:48;22.80;34.30
1259;DHT22;619;51.472;6.628;2023-04-19T15:15:14;22.70;34.10
1259;DHT22;619;51.472;6.628;2023-04-19T15:17:40;22.70;33.80
1259;DHT22;619;51.472;6.628;2023-04-19T15:20:08;22.60;33.30
1259;DHT22;619;51.472;6.628;2023-04-19T15:22:36;22.60;35.00
1259;DHT22;619;51.472;6.628;2023-04-19T15:25:02;22.60;34.30
1259;DHT22;619;51.472;6.628;2023-04-19T15:27:28;22.70;34.50
1259;DHT22;619;51.472;6.628;2023-04-19T15:29:54;22.80;34.20
1259;DHT22;619;51.472;6.628;2023-04-19T15:32:19;22.60;33.20
1259;DHT22;619;51.472;6.628;2023-04-19T15:34:47;22.40;33.70
1259;DHT22;619;51.472;6.628;2023-04-19T15:37:13;22.40;34.20
1259;DHT22;619;51.472;6.628;2023-04-19T15:39:39;22.40;34.30
1259;DHT22;619;51.472;6.628;2023-04-19T15:42:04;22.40;33.60
1259;DHT22;619;51.472;6.628;2023-04-19T15:44:30;22.30;32.80
1259;DHT22;619;51.472;6.628;2023-04-19T15:46:56;22.40;33.60
1259;DHT22;619;51.472;6.628;2023-04-19T15:49:21;22.20;33.20
1259;DHT22;619;51.472;6.628;2023-04-19T15:51:47;22.10;32.80
1259;DHT22;619;51.472;6.628;2023-04-19T15:54:13;22.10;33.80
1259;DHT22;619;51.472;6.628;2023-04-19T15:56:41;22.00;33.20
1259;DHT22;619;51.472;6.628;2023-04-19T15:59:07;22.00;33.90
1259;DHT22;619;51.472;6.628;2023-04-19T16:01:32;21.90;33.30
1259;DHT22;619;51.472;6.628;2023-04-19T16:04:00;21.80;33.60
1259;DHT22;619;51.472;6.628;2023-04-19T16:06:28;21.70;34.10
1259;DHT22;619;51.472;6.628;2023-04-19T16:08:54;21.80;34.30
1259;DHT22;619;51.472;6.628;2023-04-19T16:11:19;21.80;33.90
1259;DHT22;619;51.472;6.628;2023-04-19T16:13:45;21.90;34.30
1259;DHT22;619;51.472;6.628;2023-04-19T16:16:11;21.90;33.50
1259;DHT22;619;51.472;6.628;2023-04-19T16:18:39;21.90;33.20
1259;DHT22;619;51.472;6.628;2023-04-19T16:21:04;22.00;33.70
1259;DHT22;619;51.472;6.628;2023-04-19T16:23:33;21.90;33.40
1259;DHT22;619;51.472;6.628;2023-04-19T16:26:01;21.90;32.50
1259;DHT22;619;51.472;6.628;2023-04-19T16:28:26;21.90;32.50